UNEE/KEJ METAR and TAF weather

Enter ICAO airport designator
Station Type Date Time Source
UNEE METAR 2021/05/13 17:30 UTC NOAA

UNEE 131730Z 30004MPS 9999 SCT033CB 14/02 Q1012 R23/CLRD60 NOSIG RMK QFE736


Station Type Date Time Source
UNEE Decoded METAR 2021/05/13 17:30 UTC NOAA

Kemerovo, Russia (UNEE) 55-19-48N 086-04-48E
May 13, 2021 - 01:30 PM EDT / 2021.05.13 1730 UTC
Wind: from the WNW (300 degrees) at 9 MPH (8 KT):0
Visibility: greater than 7 mile(s):0
Sky conditions: partly cloudy
Weather: Cumulonimbus clouds observed
Temperature: 57 F (14 C)
Dew Point: 35 F (2 C)
Relative Humidity: 44%
Pressure (altimeter): 29.88 in. Hg (1012 hPa)
ob: UNEE 131730Z 30004MPS 9999 SCT033CB 14/02 Q1012 R23/CLRD60 NOSIG RMK QFE736
cycle: 17

Station Type Date Time Source
UNEE TAF 2021/05/13 18:21 UTC NOAA

TAF UNEE 131700Z 1318/1418 30003G08MPS 9999 SCT030CB
TEMPO 1320/1324 0300 FU SCT004 BKN016CB
BECMG 1403/1406 33007G13MPS
BECMG 1412/1415 23003G08MPS

Example: see airport list